sensor_id;sensor_type;location;lat;lon;timestamp;P1;durP1;ratioP1;P2;durP2;ratioP2
64361;SDS011;50685;53.346;-6.296;2023-05-10T03:44:49;5.13;;;1.10;;
64361;SDS011;50685;53.346;-6.296;2023-05-10T04:12:16;6.80;;;1.50;;
64361;SDS011;50685;53.346;-6.296;2023-05-10T04:18:50;7.65;;;1.27;;
64361;SDS011;50685;53.346;-6.296;2023-05-10T04:21:25;5.50;;;1.30;;
64361;SDS011;50685;53.346;-6.296;2023-05-10T04:24:07;8.82;;;2.10;;
64361;SDS011;50685;53.346;-6.296;2023-05-10T04:38:11;4.03;;;1.00;;
64361;SDS011;50685;53.346;-6.296;2023-05-10T04:44:32;6.05;;;1.23;;
64361;SDS011;50685;53.346;-6.296;2023-05-10T04:57:26;6.35;;;0.95;;
64361;SDS011;50685;53.346;-6.296;2023-05-10T05:00:00;6.38;;;1.08;;
64361;SDS011;50685;53.346;-6.296;2023-05-10T05:06:29;6.28;;;1.00;;
64361;SDS011;50685;53.346;-6.296;2023-05-10T05:16:30;2.75;;;1.00;;
64361;SDS011;50685;53.346;-6.296;2023-05-10T05:34:32;3.00;;;0.80;;
64361;SDS011;50685;53.346;-6.296;2023-05-10T05:48:10;5.38;;;1.02;;
64361;SDS011;50685;53.346;-6.296;2023-05-10T05:50:35;4.80;;;0.60;;
64361;SDS011;50685;53.346;-6.296;2023-05-10T05:53:20;3.78;;;0.63;;
64361;SDS011;50685;53.346;-6.296;2023-05-10T05:59:12;6.80;;;0.90;;
64361;SDS011;50685;53.346;-6.296;2023-05-10T06:04:31;4.85;;;1.10;;
64361;SDS011;50685;53.346;-6.296;2023-05-10T06:07:15;3.47;;;1.13;;
64361;SDS011;50685;53.346;-6.296;2023-05-10T06:09:52;4.93;;;1.30;;
64361;SDS011;50685;53.346;-6.296;2023-05-10T06:12:47;4.32;;;0.80;;
64361;SDS011;50685;53.346;-6.296;2023-05-10T06:15:32;7.68;;;1.02;;
64361;SDS011;50685;53.346;-6.296;2023-05-10T06:18:03;7.95;;;1.60;;
64361;SDS011;50685;53.346;-6.296;2023-05-10T06:20:53;3.90;;;1.00;;
64361;SDS011;50685;53.346;-6.296;2023-05-10T06:33:20;5.93;;;0.90;;
64361;SDS011;50685;53.346;-6.296;2023-05-10T07:15:52;2.85;;;0.70;;
64361;SDS011;50685;53.346;-6.296;2023-05-10T07:18:27;8.45;;;1.95;;
64361;SDS011;50685;53.346;-6.296;2023-05-10T07:20:59;2.40;;;0.70;;
64361;SDS011;50685;53.346;-6.296;2023-05-10T07:23:50;3.97;;;0.60;;
64361;SDS011;50685;53.346;-6.296;2023-05-10T07:39:04;1.88;;;0.90;;
64361;SDS011;50685;53.346;-6.296;2023-05-10T07:41:30;1.95;;;0.50;;
64361;SDS011;50685;53.346;-6.296;2023-05-10T07:44:05;1.92;;;0.50;;
64361;SDS011;50685;53.346;-6.296;2023-05-10T07:46:40;9.68;;;0.80;;
64361;SDS011;50685;53.346;-6.296;2023-05-10T07:49:25;0.85;;;0.50;;
64361;SDS011;50685;53.346;-6.296;2023-05-10T07:51:51;1.08;;;0.50;;
64361;SDS011;50685;53.346;-6.296;2023-05-10T07:54:16;4.55;;;0.70;;
64361;SDS011;50685;53.346;-6.296;2023-05-10T07:56:42;2.17;;;0.70;;
64361;SDS011;50685;53.346;-6.296;2023-05-10T07:59:17;1.23;;;0.55;;
64361;SDS011;50685;53.346;-6.296;2023-05-10T08:01:48;0.50;;;0.40;;
64361;SDS011;50685;53.346;-6.296;2023-05-10T08:04:30;2.30;;;0.60;;
64361;SDS011;50685;53.346;-6.296;2023-05-10T08:07:09;2.83;;;0.55;;
64361;SDS011;50685;53.346;-6.296;2023-05-10T08:09:43;0.40;;;0.40;;
64361;SDS011;50685;53.346;-6.296;2023-05-10T08:12:34;1.20;;;0.50;;
64361;SDS011;50685;53.346;-6.296;2023-05-10T08:15:20;2.08;;;1.00;;
64361;SDS011;50685;53.346;-6.296;2023-05-10T08:17:45;3.33;;;0.60;;
64361;SDS011;50685;53.346;-6.296;2023-05-10T08:20:11;2.25;;;0.60;;
64361;SDS011;50685;53.346;-6.296;2023-05-10T08:22:40;0.90;;;0.40;;
64361;SDS011;50685;53.346;-6.296;2023-05-10T08:25:06;1.80;;;0.60;;
64361;SDS011;50685;53.346;-6.296;2023-05-10T08:27:31;2.92;;;0.70;;
64361;SDS011;50685;53.346;-6.296;2023-05-10T08:29:57;1.92;;;0.75;;
64361;SDS011;50685;53.346;-6.296;2023-05-10T08:32:25;1.13;;;0.55;;
64361;SDS011;50685;53.346;-6.296;2023-05-10T08:34:59;1.80;;;0.57;;
64361;SDS011;50685;53.346;-6.296;2023-05-10T08:37:25;10.05;;;2.67;;
64361;SDS011;50685;53.346;-6.296;2023-05-10T08:39:51;2.83;;;0.50;;
64361;SDS011;50685;53.346;-6.296;2023-05-10T08:42:19;1.02;;;0.40;;
64361;SDS011;50685;53.346;-6.296;2023-05-10T08:44:49;4.38;;;0.60;;
64361;SDS011;50685;53.346;-6.296;2023-05-10T08:47:16;2.53;;;0.35;;
64361;SDS011;50685;53.346;-6.296;2023-05-10T08:49:43;2.63;;;0.80;;
64361;SDS011;50685;53.346;-6.296;2023-05-10T08:52:14;2.05;;;0.50;;
64361;SDS011;50685;53.346;-6.296;2023-05-10T08:54:41;3.83;;;0.90;;
64361;SDS011;50685;53.346;-6.296;2023-05-10T08:57:07;2.45;;;0.55;;
64361;SDS011;50685;53.346;-6.296;2023-05-10T08:59:33;2.75;;;0.70;;
64361;SDS011;50685;53.346;-6.296;2023-05-10T09:02:04;1.08;;;0.52;;
64361;SDS011;50685;53.346;-6.296;2023-05-10T09:04:34;2.15;;;0.73;;
64361;SDS011;50685;53.346;-6.296;2023-05-10T09:07:03;3.17;;;1.00;;
64361;SDS011;50685;53.346;-6.296;2023-05-10T09:09:29;6.47;;;0.68;;
64361;SDS011;50685;53.346;-6.296;2023-05-10T09:11:58;1.15;;;0.50;;
64361;SDS011;50685;53.346;-6.296;2023-05-10T09:14:27;0.90;;;0.50;;
64361;SDS011;50685;53.346;-6.296;2023-05-10T09:17:08;1.45;;;0.50;;
64361;SDS011;50685;53.346;-6.296;2023-05-10T09:19:35;3.42;;;0.55;;
64361;SDS011;50685;53.346;-6.296;2023-05-10T09:22:00;1.33;;;0.50;;
64361;SDS011;50685;53.346;-6.296;2023-05-10T09:24:28;0.75;;;0.50;;
64361;SDS011;50685;53.346;-6.296;2023-05-10T09:27:07;1.05;;;0.47;;
64361;SDS011;50685;53.346;-6.296;2023-05-10T09:29:42;1.45;;;0.40;;
64361;SDS011;50685;53.346;-6.296;2023-05-10T09:34:53;0.70;;;0.50;;
64361;SDS011;50685;53.346;-6.296;2023-05-10T09:37:30;3.10;;;0.45;;
64361;SDS011;50685;53.346;-6.296;2023-05-10T09:40:11;0.40;;;0.40;;
64361;SDS011;50685;53.346;-6.296;2023-05-10T09:43:12;1.48;;;0.40;;
64361;SDS011;50685;53.346;-6.296;2023-05-10T09:45:41;1.42;;;0.68;;
64361;SDS011;50685;53.346;-6.296;2023-05-10T09:48:09;1.17;;;0.50;;
64361;SDS011;50685;53.346;-6.296;2023-05-10T09:50:35;1.20;;;0.47;;
64361;SDS011;50685;53.346;-6.296;2023-05-10T09:53:05;2.53;;;0.68;;
64361;SDS011;50685;53.346;-6.296;2023-05-10T09:55:40;2.72;;;0.52;;
64361;SDS011;50685;53.346;-6.296;2023-05-10T09:58:17;2.17;;;0.57;;
64361;SDS011;50685;53.346;-6.296;2023-05-10T10:00:48;2.08;;;0.68;;
64361;SDS011;50685;53.346;-6.296;2023-05-10T10:03:22;1.65;;;0.47;;
64361;SDS011;50685;53.346;-6.296;2023-05-10T10:05:50;3.75;;;0.82;;
64361;SDS011;50685;53.346;-6.296;2023-05-10T10:08:20;1.95;;;0.75;;
64361;SDS011;50685;53.346;-6.296;2023-05-10T10:10:48;0.52;;;0.47;;
64361;SDS011;50685;53.346;-6.296;2023-05-10T10:13:51;0.65;;;0.40;;
64361;SDS011;50685;53.346;-6.296;2023-05-10T10:19:40;1.30;;;0.30;;
64361;SDS011;50685;53.346;-6.296;2023-05-10T10:22:06;0.98;;;0.50;;
64361;SDS011;50685;53.346;-6.296;2023-05-10T10:24:32;1.45;;;0.50;;
64361;SDS011;50685;53.346;-6.296;2023-05-10T10:27:26;1.27;;;0.88;;
64361;SDS011;50685;53.346;-6.296;2023-05-10T10:30:13;4.70;;;0.93;;
64361;SDS011;50685;53.346;-6.296;2023-05-10T10:35:33;1.05;;;0.47;;
64361;SDS011;50685;53.346;-6.296;2023-05-10T10:38:00;4.07;;;0.50;;
64361;SDS011;50685;53.346;-6.296;2023-05-10T10:40:27;2.13;;;0.35;;
64361;SDS011;50685;53.346;-6.296;2023-05-10T10:42:58;2.60;;;0.50;;
64361;SDS011;50685;53.346;-6.296;2023-05-10T10:46:09;2.60;;;0.93;;
64361;SDS011;50685;53.346;-6.296;2023-05-10T10:48:38;3.20;;;0.40;;
64361;SDS011;50685;53.346;-6.296;2023-05-10T10:54:27;1.20;;;0.35;;
64361;SDS011;50685;53.346;-6.296;2023-05-10T10:59:42;4.13;;;0.60;;
64361;SDS011;50685;53.346;-6.296;2023-05-10T11:07:57;3.47;;;1.08;;
64361;SDS011;50685;53.346;-6.296;2023-05-10T11:10:26;0.40;;;0.30;;
64361;SDS011;50685;53.346;-6.296;2023-05-10T11:13:03;1.45;;;0.30;;
64361;SDS011;50685;53.346;-6.296;2023-05-10T11:15:37;1.10;;;0.60;;
64361;SDS011;50685;53.346;-6.296;2023-05-10T11:18:17;0.90;;;0.25;;
64361;SDS011;50685;53.346;-6.296;2023-05-10T11:20:52;0.32;;;0.28;;
64361;SDS011;50685;53.346;-6.296;2023-05-10T11:23:21;2.95;;;0.38;;
64361;SDS011;50685;53.346;-6.296;2023-05-10T11:25:51;1.13;;;0.32;;
64361;SDS011;50685;53.346;-6.296;2023-05-10T11:28:20;0.35;;;0.35;;
64361;SDS011;50685;53.346;-6.296;2023-05-10T11:30:45;2.53;;;0.40;;
64361;SDS011;50685;53.346;-6.296;2023-05-10T11:33:15;2.30;;;0.40;;
64361;SDS011;50685;53.346;-6.296;2023-05-10T11:35:41;2.55;;;0.50;;
64361;SDS011;50685;53.346;-6.296;2023-05-10T11:38:11;2.33;;;0.50;;
64361;SDS011;50685;53.346;-6.296;2023-05-10T11:40:37;1.65;;;0.50;;
64361;SDS011;50685;53.346;-6.296;2023-05-10T11:43:03;1.17;;;0.40;;
64361;SDS011;50685;53.346;-6.296;2023-05-10T11:45:32;1.35;;;0.60;;
64361;SDS011;50685;53.346;-6.296;2023-05-10T11:47:58;1.02;;;0.65;;
64361;SDS011;50685;53.346;-6.296;2023-05-10T11:50:26;2.10;;;0.40;;
64361;SDS011;50685;53.346;-6.296;2023-05-10T11:52:52;2.10;;;0.40;;
64361;SDS011;50685;53.346;-6.296;2023-05-10T11:55:19;2.55;;;0.60;;
64361;SDS011;50685;53.346;-6.296;2023-05-10T11:57:45;1.85;;;0.40;;
64361;SDS011;50685;53.346;-6.296;2023-05-10T12:00:13;0.95;;;0.65;;
64361;SDS011;50685;53.346;-6.296;2023-05-10T12:02:39;1.30;;;0.40;;
64361;SDS011;50685;53.346;-6.296;2023-05-10T12:05:05;0.30;;;0.30;;
64361;SDS011;50685;53.346;-6.296;2023-05-10T12:07:32;0.75;;;0.50;;
64361;SDS011;50685;53.346;-6.296;2023-05-10T12:13:01;0.73;;;0.40;;
64361;SDS011;50685;53.346;-6.296;2023-05-10T12:15:24;0.60;;;0.60;;
64361;SDS011;50685;53.346;-6.296;2023-05-10T12:17:52;1.15;;;0.45;;
64361;SDS011;50685;53.346;-6.296;2023-05-10T12:20:20;1.35;;;0.50;;
64361;SDS011;50685;53.346;-6.296;2023-05-10T12:25:17;1.05;;;0.30;;
64361;SDS011;50685;53.346;-6.296;2023-05-10T12:31:05;0.93;;;0.63;;
64361;SDS011;50685;53.346;-6.296;2023-05-10T12:33:35;3.25;;;0.70;;
64361;SDS011;50685;53.346;-6.296;2023-05-10T12:36:03;2.63;;;0.82;;
64361;SDS011;50685;53.346;-6.296;2023-05-10T12:38:33;1.52;;;0.57;;
64361;SDS011;50685;53.346;-6.296;2023-05-10T12:41:11;0.63;;;0.40;;
64361;SDS011;50685;53.346;-6.296;2023-05-10T12:43:38;2.05;;;0.65;;
64361;SDS011;50685;53.346;-6.296;2023-05-10T12:46:14;6.75;;;0.63;;
64361;SDS011;50685;53.346;-6.296;2023-05-10T12:48:42;0.88;;;0.60;;
64361;SDS011;50685;53.346;-6.296;2023-05-10T12:58:11;2.45;;;0.57;;
64361;SDS011;50685;53.346;-6.296;2023-05-10T13:07:35;0.65;;;0.47;;
64361;SDS011;50685;53.346;-6.296;2023-05-10T13:10:43;1.80;;;0.40;;
64361;SDS011;50685;53.346;-6.296;2023-05-10T13:13:39;1.45;;;0.38;;
64361;SDS011;50685;53.346;-6.296;2023-05-10T13:19:05;0.57;;;0.40;;
64361;SDS011;50685;53.346;-6.296;2023-05-10T13:22:05;1.98;;;0.73;;
64361;SDS011;50685;53.346;-6.296;2023-05-10T13:24:43;1.70;;;0.70;;
64361;SDS011;50685;53.346;-6.296;2023-05-10T13:27:26;0.50;;;0.50;;
64361;SDS011;50685;53.346;-6.296;2023-05-10T13:29:55;1.98;;;0.60;;
64361;SDS011;50685;53.346;-6.296;2023-05-10T13:32:28;2.13;;;0.75;;
64361;SDS011;50685;53.346;-6.296;2023-05-10T13:34:54;0.70;;;0.60;;
64361;SDS011;50685;53.346;-6.296;2023-05-10T13:37:20;2.38;;;0.60;;
64361;SDS011;50685;53.346;-6.296;2023-05-10T13:39:45;1.60;;;0.40;;
64361;SDS011;50685;53.346;-6.296;2023-05-10T13:42:11;1.88;;;0.70;;
64361;SDS011;50685;53.346;-6.296;2023-05-10T13:44:36;5.47;;;0.57;;
64361;SDS011;50685;53.346;-6.296;2023-05-10T13:47:03;0.70;;;0.60;;
64361;SDS011;50685;53.346;-6.296;2023-05-10T13:49:29;1.33;;;0.50;;
64361;SDS011;50685;53.346;-6.296;2023-05-10T13:51:55;1.08;;;0.35;;
64361;SDS011;50685;53.346;-6.296;2023-05-10T13:54:23;3.28;;;0.70;;
64361;SDS011;50685;53.346;-6.296;2023-05-10T13:56:49;1.85;;;0.85;;
64361;SDS011;50685;53.346;-6.296;2023-05-10T13:59:14;1.75;;;0.57;;
64361;SDS011;50685;53.346;-6.296;2023-05-10T14:14:29;4.40;;;0.40;;
64361;SDS011;50685;53.346;-6.296;2023-05-10T14:16:55;0.63;;;0.52;;
64361;SDS011;50685;53.346;-6.296;2023-05-10T14:19:29;0.95;;;0.40;;
64361;SDS011;50685;53.346;-6.296;2023-05-10T14:21:57;1.23;;;0.40;;
64361;SDS011;50685;53.346;-6.296;2023-05-10T14:24:30;1.00;;;0.50;;
64361;SDS011;50685;53.346;-6.296;2023-05-10T14:27:15;1.85;;;0.57;;
64361;SDS011;50685;53.346;-6.296;2023-05-10T14:30:06;4.60;;;0.93;;
64361;SDS011;50685;53.346;-6.296;2023-05-10T14:32:32;1.17;;;0.60;;
64361;SDS011;50685;53.346;-6.296;2023-05-10T14:35:14;3.08;;;0.73;;
64361;SDS011;50685;53.346;-6.296;2023-05-10T14:37:40;2.72;;;0.75;;
64361;SDS011;50685;53.346;-6.296;2023-05-10T14:40:05;4.30;;;1.00;;
64361;SDS011;50685;53.346;-6.296;2023-05-10T14:42:37;1.25;;;0.47;;
64361;SDS011;50685;53.346;-6.296;2023-05-10T14:45:09;2.80;;;0.45;;
64361;SDS011;50685;53.346;-6.296;2023-05-10T14:47:56;1.10;;;0.40;;
64361;SDS011;50685;53.346;-6.296;2023-05-10T14:51:19;1.25;;;0.40;;
64361;SDS011;50685;53.346;-6.296;2023-05-10T15:03:58;0.40;;;0.40;;
64361;SDS011;50685;53.346;-6.296;2023-05-10T15:06:25;2.33;;;0.50;;
64361;SDS011;50685;53.346;-6.296;2023-05-10T15:17:01;1.42;;;0.40;;
64361;SDS011;50685;53.346;-6.296;2023-05-10T15:19:32;0.90;;;0.40;;
64361;SDS011;50685;53.346;-6.296;2023-05-10T15:22:22;1.15;;;1.05;;
64361;SDS011;50685;53.346;-6.296;2023-05-10T16:18:36;0.20;;;0.20;;
64361;SDS011;50685;53.346;-6.296;2023-05-10T16:21:34;2.55;;;0.55;;
64361;SDS011;50685;53.346;-6.296;2023-05-10T16:24:18;1.88;;;0.75;;
64361;SDS011;50685;53.346;-6.296;2023-05-10T16:27:00;2.20;;;0.50;;
64361;SDS011;50685;53.346;-6.296;2023-05-10T16:30:30;0.60;;;0.40;;
64361;SDS011;50685;53.346;-6.296;2023-05-10T16:32:43;1.10;;;0.50;;
64361;SDS011;50685;53.346;-6.296;2023-05-10T16:35:16;2.38;;;0.70;;
64361;SDS011;50685;53.346;-6.296;2023-05-10T16:37:49;1.42;;;0.50;;
64361;SDS011;50685;53.346;-6.296;2023-05-10T16:40:31;4.28;;;0.50;;
64361;SDS011;50685;53.346;-6.296;2023-05-10T16:46:59;1.25;;;0.50;;
64361;SDS011;50685;53.346;-6.296;2023-05-10T16:59:46;1.83;;;0.50;;
64361;SDS011;50685;53.346;-6.296;2023-05-10T17:02:18;2.72;;;0.60;;
64361;SDS011;50685;53.346;-6.296;2023-05-10T17:13:51;3.88;;;0.80;;
64361;SDS011;50685;53.346;-6.296;2023-05-10T17:16:32;4.30;;;0.93;;
64361;SDS011;50685;53.346;-6.296;2023-05-10T17:19:24;3.17;;;1.05;;
64361;SDS011;50685;53.346;-6.296;2023-05-10T17:27:06;5.32;;;0.80;;
64361;SDS011;50685;53.346;-6.296;2023-05-10T17:29:44;3.08;;;0.80;;
64361;SDS011;50685;53.346;-6.296;2023-05-10T17:35:13;2.80;;;0.80;;
64361;SDS011;50685;53.346;-6.296;2023-05-10T17:37:48;2.75;;;0.80;;
64361;SDS011;50685;53.346;-6.296;2023-05-10T17:40:45;2.97;;;1.08;;
64361;SDS011;50685;53.346;-6.296;2023-05-10T17:43:23;3.78;;;0.98;;
64361;SDS011;50685;53.346;-6.296;2023-05-10T17:49:23;2.15;;;0.50;;
64361;SDS011;50685;53.346;-6.296;2023-05-10T17:54:44;1.05;;;0.50;;
64361;SDS011;50685;53.346;-6.296;2023-05-10T18:14:20;2.05;;;0.57;;
64361;SDS011;50685;53.346;-6.296;2023-05-10T18:23:36;1.95;;;0.60;;
64361;SDS011;50685;53.346;-6.296;2023-05-10T18:29:01;0.75;;;0.60;;
64361;SDS011;50685;53.346;-6.296;2023-05-10T18:31:38;0.30;;;0.30;;
64361;SDS011;50685;53.346;-6.296;2023-05-10T18:34:49;2.17;;;0.47;;
64361;SDS011;50685;53.346;-6.296;2023-05-10T18:37:35;2.58;;;0.50;;
64361;SDS011;50685;53.346;-6.296;2023-05-10T18:47:44;1.48;;;0.57;;
64361;SDS011;50685;53.346;-6.296;2023-05-10T18:50:59;3.72;;;0.88;;
64361;SDS011;50685;53.346;-6.296;2023-05-10T18:53:36;3.78;;;0.60;;
64361;SDS011;50685;53.346;-6.296;2023-05-10T18:56:10;3.22;;;0.90;;
64361;SDS011;50685;53.346;-6.296;2023-05-10T18:58:56;4.85;;;1.42;;
64361;SDS011;50685;53.346;-6.296;2023-05-10T19:01:46;3.92;;;1.35;;
64361;SDS011;50685;53.346;-6.296;2023-05-10T19:16:16;5.93;;;1.15;;
64361;SDS011;50685;53.346;-6.296;2023-05-10T19:18:50;5.22;;;1.33;;
64361;SDS011;50685;53.346;-6.296;2023-05-10T19:21:35;5.82;;;1.50;;
64361;SDS011;50685;53.346;-6.296;2023-05-10T19:24:44;2.30;;;0.90;;
64361;SDS011;50685;53.346;-6.296;2023-05-10T19:27:51;4.80;;;1.00;;
64361;SDS011;50685;53.346;-6.296;2023-05-10T19:33:25;4.93;;;1.33;;
64361;SDS011;50685;53.346;-6.296;2023-05-10T19:36:19;6.00;;;1.27;;
64361;SDS011;50685;53.346;-6.296;2023-05-10T19:39:20;3.08;;;0.80;;
64361;SDS011;50685;53.346;-6.296;2023-05-10T19:41:56;1.65;;;1.10;;
64361;SDS011;50685;53.346;-6.296;2023-05-10T19:47:21;6.82;;;1.02;;
64361;SDS011;50685;53.346;-6.296;2023-05-10T19:50:09;2.03;;;0.68;;
64361;SDS011;50685;53.346;-6.296;2023-05-10T19:53:20;2.40;;;0.90;;
64361;SDS011;50685;53.346;-6.296;2023-05-10T19:55:55;2.60;;;0.90;;
64361;SDS011;50685;53.346;-6.296;2023-05-10T19:59:00;2.60;;;0.82;;
64361;SDS011;50685;53.346;-6.296;2023-05-10T20:02:32;3.10;;;1.05;;
64361;SDS011;50685;53.346;-6.296;2023-05-10T20:06:07;6.28;;;1.00;;
64361;SDS011;50685;53.346;-6.296;2023-05-10T20:09:19;9.38;;;1.30;;
64361;SDS011;50685;53.346;-6.296;2023-05-10T20:12:01;5.80;;;1.17;;
64361;SDS011;50685;53.346;-6.296;2023-05-10T20:14:58;6.47;;;1.27;;
64361;SDS011;50685;53.346;-6.296;2023-05-10T20:17:41;5.82;;;1.90;;
64361;SDS011;50685;53.346;-6.296;2023-05-10T20:23:59;3.75;;;1.70;;
64361;SDS011;50685;53.346;-6.296;2023-05-10T20:26:47;9.80;;;2.00;;
64361;SDS011;50685;53.346;-6.296;2023-05-10T20:29:39;5.47;;;2.05;;
64361;SDS011;50685;53.346;-6.296;2023-05-10T20:32:16;5.57;;;1.58;;
64361;SDS011;50685;53.346;-6.296;2023-05-10T20:35:08;5.25;;;2.13;;
64361;SDS011;50685;53.346;-6.296;2023-05-10T20:37:58;5.47;;;1.38;;
64361;SDS011;50685;53.346;-6.296;2023-05-10T20:40:38;11.75;;;1.30;;
64361;SDS011;50685;53.346;-6.296;2023-05-10T20:43:16;10.00;;;2.55;;
64361;SDS011;50685;53.346;-6.296;2023-05-10T20:46:02;5.05;;;1.27;;
64361;SDS011;50685;53.346;-6.296;2023-05-10T20:48:34;2.90;;;1.27;;
64361;SDS011;50685;53.346;-6.296;2023-05-10T20:51:08;3.75;;;1.10;;
64361;SDS011;50685;53.346;-6.296;2023-05-10T20:53:39;4.65;;;1.50;;
64361;SDS011;50685;53.346;-6.296;2023-05-10T21:00:01;12.40;;;1.95;;
64361;SDS011;50685;53.346;-6.296;2023-05-10T21:02:37;8.18;;;2.08;;
64361;SDS011;50685;53.346;-6.296;2023-05-10T21:05:41;9.23;;;1.65;;
64361;SDS011;50685;53.346;-6.296;2023-05-10T21:10:44;11.18;;;1.95;;
64361;SDS011;50685;53.346;-6.296;2023-05-10T21:13:10;12.60;;;2.47;;
64361;SDS011;50685;53.346;-6.296;2023-05-10T21:15:44;10.82;;;2.20;;
64361;SDS011;50685;53.346;-6.296;2023-05-10T21:21:40;13.48;;;1.88;;
64361;SDS011;50685;53.346;-6.296;2023-05-10T21:24:42;7.78;;;1.55;;
64361;SDS011;50685;53.346;-6.296;2023-05-10T21:27:33;10.95;;;1.27;;
64361;SDS011;50685;53.346;-6.296;2023-05-10T21:35:35;7.18;;;1.60;;
64361;SDS011;50685;53.346;-6.296;2023-05-10T21:44:15;2.60;;;1.10;;
64361;SDS011;50685;53.346;-6.296;2023-05-10T21:49:53;15.63;;;1.52;;
64361;SDS011;50685;53.346;-6.296;2023-05-10T21:53:02;3.95;;;1.92;;
64361;SDS011;50685;53.346;-6.296;2023-05-10T22:06:16;7.40;;;2.20;;
64361;SDS011;50685;53.346;-6.296;2023-05-10T22:12:42;12.88;;;1.50;;
64361;SDS011;50685;53.346;-6.296;2023-05-10T22:18:45;7.95;;;1.05;;
64361;SDS011;50685;53.346;-6.296;2023-05-10T22:21:27;12.48;;;1.58;;
64361;SDS011;50685;53.346;-6.296;2023-05-10T22:24:07;8.40;;;1.10;;
64361;SDS011;50685;53.346;-6.296;2023-05-10T22:29:49;9.40;;;1.48;;
64361;SDS011;50685;53.346;-6.296;2023-05-10T22:32:15;8.25;;;1.73;;
64361;SDS011;50685;53.346;-6.296;2023-05-10T22:37:59;10.32;;;2.47;;
64361;SDS011;50685;53.346;-6.296;2023-05-10T22:49:41;6.03;;;1.13;;
64361;SDS011;50685;53.346;-6.296;2023-05-10T22:52:26;6.53;;;1.20;;
64361;SDS011;50685;53.346;-6.296;2023-05-10T22:58:23;8.30;;;1.45;;
64361;SDS011;50685;53.346;-6.296;2023-05-10T23:09:25;8.75;;;1.30;;
64361;SDS011;50685;53.346;-6.296;2023-05-10T23:43:07;4.68;;;1.15;;
64361;SDS011;50685;53.346;-6.296;2023-05-10T23:49:11;3.38;;;1.40;;
64361;SDS011;50685;53.346;-6.296;2023-05-10T23:52:18;7.45;;;1.27;;
